createdAt,value
2022-11-29T00:01:11.482Z,28.08
2022-11-29T00:03:38.177Z,28.75
2022-11-29T00:06:13.106Z,27.85
2022-11-29T00:08:41.289Z,26.00
2022-11-29T00:11:10.559Z,30.73
2022-11-29T00:13:37.144Z,26.38
2022-11-29T00:16:05.282Z,28.60
2022-11-29T00:18:32.161Z,28.83
2022-11-29T00:20:59.201Z,27.65
2022-11-29T00:23:25.905Z,28.13
2022-11-29T00:25:52.902Z,29.40
2022-11-29T00:28:19.444Z,26.85
2022-11-29T00:30:46.100Z,26.73
2022-11-29T00:33:12.813Z,26.65
2022-11-29T00:35:39.370Z,29.05
2022-11-29T00:38:05.981Z,28.75
2022-11-29T00:40:32.535Z,25.77
2022-11-29T00:42:59.127Z,29.33
2022-11-29T00:45:25.680Z,30.25
2022-11-29T00:47:52.239Z,27.05
2022-11-29T00:50:18.883Z,30.05
2022-11-29T00:52:45.422Z,29.67
2022-11-29T00:55:11.971Z,32.33
2022-11-29T00:57:38.537Z,28.42
2022-11-29T01:00:05.817Z,28.30
2022-11-29T01:02:32.541Z,28.35
2022-11-29T01:04:59.217Z,28.98
2022-11-29T01:07:25.829Z,29.65
2022-11-29T01:09:52.458Z,31.35
2022-11-29T01:12:19.040Z,31.25
2022-11-29T01:14:45.754Z,28.67
2022-11-29T01:17:12.504Z,30.92
2022-11-29T01:19:39.104Z,29.73
2022-11-29T01:22:05.646Z,28.42
2022-11-29T01:24:32.218Z,27.15
2022-11-29T01:26:58.743Z,27.20
2022-11-29T01:29:25.320Z,27.17
2022-11-29T01:31:51.959Z,27.52
2022-11-29T01:34:18.538Z,26.15
2022-11-29T01:36:45.208Z,28.40
2022-11-29T01:39:11.813Z,24.38
2022-11-29T01:41:38.452Z,25.27
2022-11-29T01:44:14.136Z,24.48
2022-11-29T01:46:43.038Z,25.08
2022-11-29T01:49:15.913Z,24.50
2022-11-29T01:51:47.277Z,24.40
2022-11-29T01:54:14.412Z,23.80
2022-11-29T01:56:41.943Z,27.13
2022-11-29T01:59:11.105Z,25.15
2022-11-29T02:01:38.347Z,23.05
2022-11-29T02:04:06.448Z,22.05
2022-11-29T02:06:33.259Z,22.52
2022-11-29T02:08:59.920Z,22.88
2022-11-29T02:11:58.272Z,22.80
2022-11-29T02:14:37.123Z,22.25
2022-11-29T02:17:22.298Z,23.95
2022-11-29T02:20:16.044Z,18.17
2022-11-29T02:23:16.718Z,25.88
2022-11-29T02:26:14.341Z,28.23
2022-11-29T02:28:51.944Z,21.10
2022-11-29T02:31:52.040Z,25.02
2022-11-29T02:34:46.785Z,21.35
2022-11-29T02:37:35.413Z,26.52
2022-11-29T02:40:26.981Z,24.83
2022-11-29T02:43:16.538Z,27.70
2022-11-29T02:46:03.440Z,27.83
2022-11-29T02:48:41.454Z,29.73
2022-11-29T02:51:22.696Z,31.20
2022-11-29T02:53:56.462Z,30.70
2022-11-29T02:59:09.705Z,32.03
2022-11-29T03:02:18.357Z,31.42
2022-11-29T03:05:12.861Z,30.40
2022-11-29T03:08:12.365Z,29.13
2022-11-29T03:10:42.374Z,28.77
2022-11-29T03:13:17.312Z,31.45
2022-11-29T03:15:50.338Z,28.15
2022-11-29T03:18:37.738Z,27.85
2022-11-29T03:21:13.625Z,27.23
2022-11-29T03:23:52.977Z,27.33
2022-11-29T03:26:21.568Z,27.40
2022-11-29T03:29:07.538Z,30.38
2022-11-29T03:31:55.675Z,28.10
2022-11-29T03:34:36.980Z,28.77
2022-11-29T03:37:16.409Z,30.27
2022-11-29T03:40:00.233Z,30.33
2022-11-29T03:42:34.158Z,30.27
2022-11-29T03:45:33.865Z,30.63
2022-11-29T03:48:06.637Z,32.03
2022-11-29T03:50:40.037Z,31.45
2022-11-29T03:53:20.455Z,33.72
2022-11-29T03:55:59.484Z,28.63
2022-11-29T03:58:55.664Z,31.48
2022-11-29T04:01:22.163Z,31.00
2022-11-29T04:04:27.811Z,29.30
2022-11-29T04:07:22.473Z,32.95
2022-11-29T04:10:27.222Z,27.52
2022-11-29T04:13:16.286Z,29.42
2022-11-29T04:16:03.029Z,36.97
2022-11-29T04:19:00.667Z,32.78
2022-11-29T04:21:58.263Z,27.77
2022-11-29T04:24:43.883Z,29.88
2022-11-29T04:27:34.256Z,30.90
2022-11-29T04:30:06.287Z,24.58
2022-11-29T04:32:53.468Z,32.90
2022-11-29T04:35:36.015Z,27.38
2022-11-29T04:38:26.865Z,25.17
2022-11-29T04:41:14.110Z,30.08
2022-11-29T04:43:48.048Z,27.83
2022-11-29T04:46:48.789Z,24.10
2022-11-29T04:49:46.326Z,24.30
2022-11-29T04:52:52.017Z,19.92
2022-11-29T04:55:57.604Z,26.85
2022-11-29T04:58:58.088Z,25.42
2022-11-29T05:01:40.971Z,20.58
2022-11-29T05:04:21.449Z,30.05
2022-11-29T05:07:11.809Z,30.08
2022-11-29T05:10:04.037Z,25.25
2022-11-29T05:12:41.101Z,22.88
2022-11-29T05:15:23.259Z,27.00
2022-11-29T05:17:58.852Z,27.98
2022-11-29T05:20:48.259Z,25.58
2022-11-29T05:23:30.968Z,23.90
2022-11-29T05:26:08.481Z,27.67
2022-11-29T05:28:53.422Z,25.02
2022-11-29T05:31:51.249Z,27.50
2022-11-29T05:34:46.468Z,24.90
2022-11-29T05:38:16.713Z,28.15
2022-11-29T05:40:55.160Z,28.42
2022-11-29T05:43:48.259Z,24.80
2022-11-29T05:46:22.720Z,26.88
2022-11-29T05:48:59.175Z,24.48
2022-11-29T05:51:41.823Z,29.27
2022-11-29T05:54:28.486Z,25.15
2022-11-29T05:57:19.806Z,21.60
2022-11-29T05:59:49.294Z,24.42
2022-11-29T06:02:24.867Z,23.98
2022-11-29T06:05:00.534Z,25.13
2022-11-29T06:07:38.876Z,28.90
2022-11-29T06:10:17.750Z,28.85
2022-11-29T06:16:49.646Z,24.55
2022-11-29T06:19:18.907Z,24.05
2022-11-29T06:22:00.022Z,26.33
2022-11-29T06:24:38.287Z,22.98
2022-11-29T06:27:22.318Z,24.58
2022-11-29T06:32:34.046Z,23.55
2022-11-29T06:35:10.006Z,24.83
2022-11-29T06:37:40.597Z,26.15
2022-11-29T06:40:11.762Z,26.80
2022-11-29T06:42:38.288Z,21.58
2022-11-29T06:45:06.162Z,26.52
2022-11-29T06:47:41.342Z,27.40
2022-11-29T06:50:29.569Z,23.42
2022-11-29T06:53:05.302Z,27.42
2022-11-29T06:55:59.521Z,22.40
2022-11-29T06:58:41.347Z,22.23
2022-11-29T07:01:40.048Z,28.15
2022-11-29T07:04:30.846Z,22.52
2022-11-29T07:06:57.608Z,23.65
2022-11-29T07:09:30.548Z,22.77
2022-11-29T07:11:57.362Z,22.00
2022-11-29T07:14:24.148Z,25.02
2022-11-29T07:16:57.682Z,24.52
2022-11-29T07:19:33.228Z,21.98
2022-11-29T07:22:25.771Z,22.65
2022-11-29T07:24:58.488Z,25.00
2022-11-29T07:27:47.097Z,23.58
2022-11-29T07:30:20.183Z,24.02
2022-11-29T07:33:01.598Z,27.65
2022-11-29T07:35:45.934Z,27.83
2022-11-29T07:38:27.593Z,28.13
2022-11-29T07:41:31.310Z,27.75
2022-11-29T07:44:19.425Z,24.08
2022-11-29T07:46:46.036Z,23.33
2022-11-29T07:49:12.641Z,24.15
2022-11-29T07:51:39.205Z,23.02
2022-11-29T07:54:06.091Z,21.75
2022-11-29T07:56:32.727Z,20.42
2022-11-29T07:58:59.347Z,22.33
2022-11-29T08:01:26.022Z,20.73
2022-11-29T08:03:52.601Z,21.02
2022-11-29T08:06:26.521Z,21.85
2022-11-29T08:08:53.088Z,27.70
2022-11-29T08:11:19.647Z,24.83
2022-11-29T08:13:46.215Z,22.13
2022-11-29T08:16:18.995Z,21.00
2022-11-29T08:18:45.692Z,23.07
2022-11-29T08:21:17.869Z,19.77
2022-11-29T08:23:45.556Z,22.02
2022-11-29T08:26:12.829Z,21.02
2022-11-29T08:28:39.449Z,19.33
2022-11-29T08:31:08.399Z,18.25
2022-11-29T08:33:36.294Z,19.42
2022-11-29T08:36:08.149Z,21.02
2022-11-29T08:38:34.898Z,24.67
2022-11-29T08:41:06.565Z,24.30
2022-11-29T08:43:33.487Z,21.38
2022-11-29T08:46:00.220Z,22.83
2022-11-29T08:48:26.992Z,22.85
2022-11-29T08:50:55.761Z,22.27
2022-11-29T08:53:41.437Z,21.40
2022-11-29T09:01:29.520Z,18.02
2022-11-29T09:04:07.202Z,17.98
2022-11-29T09:06:38.128Z,17.30
2022-11-29T09:09:05.261Z,16.50
2022-11-29T09:11:34.173Z,18.10
2022-11-29T09:14:04.182Z,16.75
2022-11-29T09:16:33.903Z,15.45
2022-11-29T09:19:00.832Z,18.27
2022-11-29T09:21:30.012Z,17.45
2022-11-29T09:24:01.790Z,18.05
2022-11-29T09:26:31.246Z,17.85
2022-11-29T09:29:05.581Z,16.45
2022-11-29T09:31:33.012Z,15.27
2022-11-29T09:33:59.754Z,15.48
2022-11-29T09:36:29.273Z,15.77
2022-11-29T09:38:57.109Z,13.75
2022-11-29T09:41:51.674Z,16.13
2022-11-29T09:44:30.662Z,15.57
2022-11-29T09:46:58.923Z,16.42
2022-11-29T09:49:43.888Z,15.40
2022-11-29T09:52:35.209Z,15.43
2022-11-29T09:55:20.689Z,15.77
2022-11-29T09:57:48.766Z,14.65
2022-11-29T10:00:17.533Z,14.32
2022-11-29T10:02:48.253Z,13.88
2022-11-29T10:05:25.509Z,14.27
2022-11-29T10:08:03.679Z,13.23
2022-11-29T10:10:40.820Z,13.45
2022-11-29T10:13:16.483Z,12.70
2022-11-29T10:15:48.545Z,12.73
2022-11-29T10:18:38.487Z,13.77
2022-11-29T10:21:12.825Z,13.15
2022-11-29T10:23:44.789Z,12.48
2022-11-29T10:26:12.854Z,12.48
2022-11-29T10:28:44.985Z,12.40
2022-11-29T10:31:21.594Z,13.27
2022-11-29T10:33:49.432Z,11.68
2022-11-29T10:36:26.772Z,12.70
2022-11-29T10:38:59.002Z,12.50
2022-11-29T10:41:25.947Z,12.73
2022-11-29T10:43:55.203Z,12.25
2022-11-29T10:46:40.072Z,12.38
2022-11-29T10:49:12.151Z,12.05
2022-11-29T10:51:39.054Z,12.70
2022-11-29T10:54:31.407Z,11.38
2022-11-29T10:57:00.619Z,11.40
2022-11-29T10:59:29.765Z,10.68
2022-11-29T11:01:57.465Z,9.95
2022-11-29T11:04:34.671Z,10.65
2022-11-29T11:07:03.524Z,10.13
2022-11-29T11:09:38.992Z,8.98
2022-11-29T11:12:30.058Z,9.02
2022-11-29T11:15:28.411Z,8.55
2022-11-29T11:18:00.730Z,8.30
2022-11-29T11:20:29.582Z,7.82
2022-11-29T11:23:32.435Z,7.68
2022-11-29T11:25:59.005Z,8.13
2022-11-29T11:28:28.495Z,7.75
2022-11-29T11:30:55.094Z,8.13
2022-11-29T11:33:26.651Z,6.88
2022-11-29T11:36:08.677Z,7.97
2022-11-29T11:38:50.462Z,7.07
2022-11-29T11:41:51.860Z,6.93
2022-11-29T11:44:49.305Z,7.05
2022-11-29T11:47:24.243Z,6.65
2022-11-29T11:50:03.496Z,7.68
2022-11-29T11:52:41.318Z,7.10
2022-11-29T11:55:31.169Z,6.70
2022-11-29T11:58:13.771Z,7.15
2022-11-29T12:01:08.890Z,6.60
2022-11-29T12:04:01.863Z,6.85
2022-11-29T12:06:40.676Z,7.13
2022-11-29T12:09:31.986Z,7.10
2022-11-29T12:12:26.209Z,7.32
2022-11-29T12:15:03.918Z,6.55
2022-11-29T12:17:52.559Z,7.68
2022-11-29T12:20:22.790Z,7.78
2022-11-29T12:23:16.491Z,7.10
2022-11-29T12:25:53.991Z,6.57
2022-11-29T12:28:21.646Z,7.05
2022-11-29T12:30:48.220Z,4.80
2022-11-29T12:33:33.257Z,4.43
2022-11-29T12:36:30.056Z,4.32
2022-11-29T12:39:17.007Z,4.13
2022-11-29T12:42:15.958Z,4.45
2022-11-29T12:45:23.876Z,4.07
2022-11-29T12:48:10.136Z,4.07
2022-11-29T12:50:55.563Z,4.10
2022-11-29T12:53:44.380Z,4.10
2022-11-29T12:56:29.853Z,4.68
2022-11-29T12:59:14.015Z,4.07
2022-11-29T13:01:40.756Z,4.43
2022-11-29T13:04:15.307Z,4.57
2022-11-29T13:06:44.833Z,4.43
2022-11-29T13:09:39.287Z,4.90
2022-11-29T13:12:33.130Z,4.72
2022-11-29T13:15:15.021Z,4.30
2022-11-29T13:18:00.910Z,4.90
2022-11-29T13:20:44.676Z,5.07
2022-11-29T13:23:17.688Z,4.35
2022-11-29T13:25:47.749Z,4.82
2022-11-29T13:28:28.943Z,4.32
2022-11-29T13:31:00.816Z,4.45
2022-11-29T13:33:32.171Z,5.72
2022-11-29T13:36:12.049Z,5.13
2022-11-29T13:38:40.393Z,4.78
2022-11-29T13:41:16.136Z,5.82
2022-11-29T13:43:53.686Z,4.80
2022-11-29T13:46:28.387Z,4.82
2022-11-29T13:48:55.332Z,4.88
2022-11-29T13:51:30.450Z,4.70
2022-11-29T13:54:00.690Z,4.93
2022-11-29T13:56:36.927Z,5.50
2022-11-29T13:59:08.780Z,5.50
2022-11-29T14:01:46.963Z,5.43
2022-11-29T14:04:39.523Z,5.22
2022-11-29T14:07:09.861Z,5.43
2022-11-29T14:09:59.272Z,5.13
2022-11-29T14:12:37.008Z,4.95
2022-11-29T14:15:31.196Z,5.32
2022-11-29T14:18:08.662Z,4.80
2022-11-29T14:20:44.056Z,5.00
2022-11-29T14:23:14.579Z,4.78
2022-11-29T14:25:56.577Z,5.30
2022-11-29T14:28:23.149Z,5.22
2022-11-29T14:31:03.463Z,5.20
2022-11-29T14:34:03.584Z,4.93
2022-11-29T14:36:30.150Z,5.78
2022-11-29T14:39:29.058Z,4.57
2022-11-29T14:41:55.713Z,5.03
2022-11-29T14:44:26.083Z,5.07
2022-11-29T14:47:07.253Z,4.65
2022-11-29T14:49:42.233Z,5.35
2022-11-29T14:52:14.803Z,5.75
2022-11-29T14:55:02.330Z,5.28
2022-11-29T14:57:47.233Z,4.63
2022-11-29T15:00:23.839Z,5.43
2022-11-29T15:03:15.528Z,5.07
2022-11-29T15:05:58.668Z,5.10
2022-11-29T15:08:46.609Z,5.97
2022-11-29T15:11:34.178Z,5.60
2022-11-29T15:14:14.753Z,5.30
2022-11-29T15:16:54.293Z,4.90
2022-11-29T15:19:51.808Z,4.97
2022-11-29T15:22:21.360Z,4.57
2022-11-29T15:25:04.610Z,5.03
2022-11-29T15:27:31.278Z,5.20
2022-11-29T15:29:59.958Z,4.82
2022-11-29T15:32:30.873Z,4.18
2022-11-29T15:34:58.140Z,4.63
2022-11-29T15:37:30.737Z,5.60
2022-11-29T15:40:04.456Z,9.63
2022-11-29T15:45:32.275Z,9.45
2022-11-29T15:48:20.067Z,9.95
2022-11-29T15:51:01.078Z,11.07
2022-11-29T15:53:33.831Z,11.23
2022-11-29T15:56:02.706Z,12.57
2022-11-29T15:58:31.306Z,12.30
2022-11-29T16:00:59.556Z,11.40
2022-11-29T16:03:29.989Z,11.70
2022-11-29T16:06:03.090Z,10.90
2022-11-29T16:08:34.373Z,11.50
2022-11-29T16:11:01.251Z,11.80
2022-11-29T16:13:39.777Z,12.77
2022-11-29T16:16:36.159Z,13.63
2022-11-29T16:19:10.378Z,12.95
2022-11-29T16:21:37.082Z,13.98
2022-11-29T16:24:18.336Z,13.52
2022-11-29T16:26:46.490Z,13.40
2022-11-29T16:29:28.777Z,12.75
2022-11-29T16:31:55.705Z,12.93
2022-11-29T16:34:30.645Z,13.05
2022-11-29T16:37:06.574Z,13.20
2022-11-29T16:39:37.861Z,14.10
2022-11-29T16:42:28.129Z,13.90
2022-11-29T16:45:00.271Z,14.85
2022-11-29T16:47:29.283Z,15.93
2022-11-29T16:50:01.646Z,16.25
2022-11-29T16:52:32.850Z,15.55
2022-11-29T16:54:59.974Z,15.02
2022-11-29T16:57:27.821Z,15.07
2022-11-29T16:59:54.444Z,16.50
2022-11-29T17:02:21.410Z,16.20
2022-11-29T17:04:48.262Z,14.63
2022-11-29T17:07:19.615Z,15.50
2022-11-29T17:09:46.294Z,15.10
2022-11-29T17:12:13.811Z,13.07
2022-11-29T17:14:40.679Z,16.02
2022-11-29T17:17:07.240Z,16.38
2022-11-29T17:19:33.871Z,15.77
2022-11-29T17:22:00.553Z,15.05
2022-11-29T17:24:27.225Z,15.95
2022-11-29T17:26:53.851Z,15.32
2022-11-29T17:29:20.608Z,13.10
2022-11-29T17:31:47.649Z,16.55
2022-11-29T17:34:14.372Z,16.98
2022-11-29T17:36:41.024Z,16.30
2022-11-29T17:39:07.900Z,17.27
2022-11-29T17:41:34.884Z,16.95
2022-11-29T17:44:01.548Z,15.85
2022-11-29T17:46:30.268Z,14.95
2022-11-29T17:48:59.549Z,15.65
2022-11-29T17:51:51.281Z,14.57
2022-11-29T17:54:13.439Z,15.15
2022-11-29T17:56:40.048Z,54.42
2022-11-29T17:59:06.718Z,76.55
2022-11-29T18:01:35.620Z,20.90
2022-11-29T18:04:04.265Z,19.08
2022-11-29T18:06:37.496Z,18.00
2022-11-29T18:09:05.598Z,16.90
2022-11-29T18:11:41.617Z,16.17
2022-11-29T18:14:15.531Z,19.08
2022-11-29T18:16:42.555Z,15.30
2022-11-29T18:19:11.865Z,14.88
2022-11-29T18:21:38.549Z,16.70
2022-11-29T18:24:06.340Z,98.20
2022-11-29T18:26:34.830Z,20.73
2022-11-29T18:29:01.580Z,35.88
2022-11-29T18:31:30.643Z,23.15
2022-11-29T18:33:59.417Z,44.40
2022-11-29T18:36:29.040Z,22.58
2022-11-29T18:38:57.366Z,19.10
2022-11-29T18:41:24.816Z,16.25
2022-11-29T18:43:57.910Z,15.27
2022-11-29T18:46:25.553Z,17.02
2022-11-29T18:48:53.787Z,19.88
2022-11-29T18:51:20.454Z,15.88
2022-11-29T18:53:47.227Z,14.80
2022-11-29T18:56:19.238Z,16.27
2022-11-29T18:58:47.748Z,14.60
2022-11-29T19:01:16.481Z,22.98
2022-11-29T19:03:45.659Z,15.52
2022-11-29T19:06:14.717Z,15.85
2022-11-29T19:08:42.036Z,22.20
2022-11-29T19:11:10.893Z,19.63
2022-11-29T19:13:37.890Z,31.30
2022-11-29T19:16:06.209Z,17.27
2022-11-29T19:18:33.058Z,18.55
2022-11-29T19:21:07.484Z,17.27
2022-11-29T19:23:34.220Z,16.92
2022-11-29T19:26:15.132Z,16.58
2022-11-29T19:28:44.832Z,17.17
2022-11-29T19:31:13.539Z,18.55
2022-11-29T19:33:41.754Z,18.75
2022-11-29T19:36:11.577Z,17.20
2022-11-29T19:38:39.045Z,18.55
2022-11-29T19:41:10.967Z,17.83
2022-11-29T19:43:37.758Z,17.50
2022-11-29T19:46:16.776Z,17.80
2022-11-29T19:48:43.861Z,19.00
2022-11-29T19:51:11.882Z,87.15
2022-11-29T19:53:39.119Z,156.48
2022-11-29T19:56:07.522Z,172.77
2022-11-29T19:58:34.439Z,55.17
2022-11-29T20:01:05.117Z,67.15
2022-11-29T20:03:32.077Z,27.92
2022-11-29T20:05:58.674Z,23.58
2022-11-29T20:08:26.702Z,20.23
2022-11-29T20:10:54.408Z,19.08
2022-11-29T20:13:21.613Z,21.67
2022-11-29T20:15:48.322Z,21.60
2022-11-29T20:18:15.175Z,20.23
2022-11-29T20:20:41.809Z,21.55
2022-11-29T20:23:08.523Z,19.27
2022-11-29T20:25:38.984Z,18.20
2022-11-29T20:28:06.812Z,26.98
2022-11-29T20:30:34.295Z,49.45
2022-11-29T20:33:00.994Z,23.25
2022-11-29T20:35:28.666Z,24.58
2022-11-29T20:38:07.109Z,24.35
2022-11-29T20:41:02.276Z,20.33
2022-11-29T20:43:47.086Z,40.88
2022-11-29T20:46:13.986Z,31.50
2022-11-29T20:48:40.784Z,26.48
2022-11-29T20:51:09.322Z,23.27
2022-11-29T20:53:39.581Z,20.20
2022-11-29T20:56:07.479Z,20.08
2022-11-29T20:58:34.361Z,19.73
2022-11-29T21:01:01.004Z,30.25
2022-11-29T21:03:29.315Z,24.50
2022-11-29T21:05:56.464Z,21.30
2022-11-29T21:08:25.399Z,24.40
2022-11-29T21:10:52.487Z,20.90
2022-11-29T21:13:21.870Z,24.48
2022-11-29T21:15:48.973Z,29.88
2022-11-29T21:18:23.437Z,22.95
2022-11-29T21:21:22.761Z,31.45
2022-11-29T21:24:40.007Z,25.83
2022-11-29T21:27:10.963Z,23.33
2022-11-29T21:29:37.884Z,22.65
2022-11-29T21:32:05.272Z,37.25
2022-11-29T21:34:32.056Z,28.55
2022-11-29T21:36:59.417Z,25.67
2022-11-29T21:39:35.137Z,29.98
2022-11-29T21:42:02.076Z,36.00
2022-11-29T21:44:28.714Z,108.03
2022-11-29T21:46:55.394Z,60.05
2022-11-29T21:49:22.184Z,32.70
2022-11-29T21:51:49.117Z,24.15
2022-11-29T21:54:15.677Z,29.80
2022-11-29T21:56:42.325Z,23.00
2022-11-29T21:59:08.985Z,22.55
2022-11-29T22:01:35.698Z,29.05
2022-11-29T22:04:02.435Z,22.58
2022-11-29T22:06:29.464Z,24.48
2022-11-29T22:08:56.368Z,25.73
2022-11-29T22:11:35.257Z,25.52
2022-11-29T22:14:15.073Z,25.20
2022-11-29T22:16:48.538Z,23.35
2022-11-29T22:19:18.073Z,24.73
2022-11-29T22:21:47.453Z,25.42
2022-11-29T22:24:15.168Z,27.80
2022-11-29T22:26:43.589Z,25.10
2022-11-29T22:29:11.742Z,24.40
2022-11-29T22:31:38.416Z,22.45
2022-11-29T22:34:05.078Z,26.35
2022-11-29T22:36:31.835Z,24.88
2022-11-29T22:38:59.754Z,22.60
2022-11-29T22:41:26.574Z,23.75
2022-11-29T22:43:53.239Z,23.30
2022-11-29T22:46:21.985Z,24.65
2022-11-29T22:48:52.424Z,24.30
2022-11-29T22:51:24.101Z,23.52
2022-11-29T22:54:01.717Z,23.58
2022-11-29T22:56:30.356Z,22.55
2022-11-29T22:58:57.756Z,22.45
2022-11-29T23:01:27.173Z,23.60
2022-11-29T23:03:55.958Z,23.83
2022-11-29T23:06:33.000Z,23.05
2022-11-29T23:09:04.775Z,24.38
2022-11-29T23:11:31.413Z,21.63
2022-11-29T23:13:58.439Z,22.52
2022-11-29T23:16:27.637Z,22.75
2022-11-29T23:18:55.800Z,24.98
2022-11-29T23:21:24.835Z,23.30
2022-11-29T23:23:56.261Z,26.02
2022-11-29T23:26:45.080Z,21.17
2022-11-29T23:29:14.058Z,24.30
2022-11-29T23:31:40.812Z,22.92
2022-11-29T23:34:07.993Z,21.83
2022-11-29T23:36:35.116Z,25.95
2022-11-29T23:39:04.486Z,22.98
2022-11-29T23:41:31.101Z,21.73
2022-11-29T23:43:59.657Z,20.70
2022-11-29T23:46:26.359Z,24.70
2022-11-29T23:48:53.020Z,24.15
2022-11-29T23:51:20.257Z,22.42
2022-11-29T23:53:51.114Z,24.00
2022-11-29T23:56:21.445Z,22.80
2022-11-29T23:58:48.384Z,24.17
